createdAt,value
2023-06-10T00:02:15.617Z,14.33
2023-06-10T00:04:42.989Z,14.34
2023-06-10T00:07:11.191Z,14.30
2023-06-10T00:09:38.807Z,14.24
2023-06-10T00:12:10.813Z,14.26
2023-06-10T00:14:40.184Z,14.22
2023-06-10T00:17:10.927Z,14.20
2023-06-10T00:19:42.999Z,14.24
2023-06-10T00:22:11.856Z,14.25
2023-06-10T00:24:39.177Z,14.25
2023-06-10T00:27:08.201Z,14.25
2023-06-10T00:29:35.171Z,14.09
2023-06-10T00:32:02.256Z,14.08
2023-06-10T00:34:29.186Z,14.04
2023-06-10T00:36:55.777Z,13.95
2023-06-10T00:39:23.206Z,13.93
2023-06-10T00:41:50.570Z,13.92
2023-06-10T00:44:17.488Z,13.82
2023-06-10T00:46:45.058Z,13.70
2023-06-10T00:49:11.960Z,13.57
2023-06-10T00:51:38.886Z,13.51
2023-06-10T00:54:08.582Z,13.42
2023-06-10T00:56:36.310Z,13.30
2023-06-10T00:59:03.507Z,13.27
2023-06-10T01:01:30.878Z,13.24
2023-06-10T01:03:59.858Z,13.16
2023-06-10T01:06:56.178Z,13.18
2023-06-10T01:10:01.596Z,13.20
2023-06-10T01:12:42.548Z,13.19
2023-06-10T01:15:11.647Z,13.22
2023-06-10T01:18:10.535Z,13.17
2023-06-10T01:20:42.328Z,13.12
2023-06-10T01:23:09.884Z,13.09
2023-06-10T01:25:40.488Z,13.02
2023-06-10T01:28:13.582Z,12.95
2023-06-10T01:30:57.590Z,12.86
2023-06-10T01:33:30.467Z,12.78
2023-06-10T01:35:59.458Z,12.48
2023-06-10T01:38:28.443Z,12.35
2023-06-10T01:40:56.779Z,12.34
2023-06-10T01:43:24.764Z,12.32
2023-06-10T01:45:51.634Z,12.34
2023-06-10T01:48:18.268Z,12.26
2023-06-10T01:50:45.184Z,12.26
2023-06-10T01:53:12.048Z,12.28
2023-06-10T01:55:38.774Z,12.32
2023-06-10T01:58:06.151Z,12.33
2023-06-10T02:00:32.900Z,12.36
2023-06-10T02:02:59.773Z,12.34
2023-06-10T02:05:26.836Z,12.32
2023-06-10T02:07:53.667Z,12.26
2023-06-10T02:10:22.381Z,12.16
2023-06-10T02:12:50.637Z,12.15
2023-06-10T02:15:17.406Z,12.06
2023-06-10T02:17:47.339Z,12.00
2023-06-10T02:20:14.723Z,11.99
2023-06-10T02:22:41.760Z,12.01
2023-06-10T02:25:09.428Z,12.00
2023-06-10T02:27:36.255Z,11.92
2023-06-10T02:30:03.155Z,11.92
2023-06-10T02:32:32.727Z,11.86
2023-06-10T02:35:01.220Z,11.83
2023-06-10T02:37:28.769Z,11.83
2023-06-10T02:39:56.637Z,11.76
2023-06-10T02:42:24.176Z,11.80
2023-06-10T02:44:52.577Z,11.71
2023-06-10T02:47:33.306Z,11.67
2023-06-10T02:50:01.012Z,11.68
2023-06-10T02:52:31.190Z,11.67
2023-06-10T02:54:58.292Z,11.70
2023-06-10T02:57:24.941Z,11.73
2023-06-10T02:59:52.501Z,11.73
2023-06-10T03:02:19.806Z,11.71
2023-06-10T03:04:51.562Z,11.58
2023-06-10T03:07:19.950Z,11.45
2023-06-10T03:09:47.154Z,11.45
2023-06-10T03:12:15.229Z,11.42
2023-06-10T03:14:46.159Z,11.32
2023-06-10T03:17:13.195Z,11.33
2023-06-10T03:19:42.171Z,11.26
2023-06-10T03:22:14.066Z,11.23
2023-06-10T03:24:54.471Z,11.30
2023-06-10T03:27:21.516Z,11.35
2023-06-10T03:29:52.187Z,11.38
2023-06-10T03:32:19.882Z,11.30
2023-06-10T03:34:46.551Z,11.31
2023-06-10T03:37:13.813Z,11.35
2023-06-10T03:39:40.704Z,11.40
2023-06-10T03:42:07.853Z,11.30
2023-06-10T03:44:35.035Z,11.30
2023-06-10T03:47:01.738Z,11.28
2023-06-10T03:49:30.637Z,11.23
2023-06-10T03:52:00.629Z,11.30
2023-06-10T03:54:27.558Z,11.41
2023-06-10T03:56:54.171Z,11.42
2023-06-10T03:59:21.015Z,11.43
2023-06-10T04:01:47.818Z,11.47
2023-06-10T04:04:17.580Z,11.54
2023-06-10T04:06:45.617Z,11.50
2023-06-10T04:09:12.970Z,11.47
2023-06-10T04:11:40.372Z,11.47
2023-06-10T04:14:07.490Z,11.54
2023-06-10T04:16:35.658Z,11.49
2023-06-10T04:19:03.157Z,11.55
2023-06-10T04:21:29.858Z,11.59
2023-06-10T04:23:56.579Z,11.67
2023-06-10T04:26:23.288Z,11.73
2023-06-10T04:28:52.110Z,11.84
2023-06-10T04:31:19.005Z,11.90
2023-06-10T04:33:46.578Z,12.01
2023-06-10T04:36:13.561Z,12.10
2023-06-10T04:38:41.796Z,12.23
2023-06-10T04:41:09.069Z,12.33
2023-06-10T04:43:36.957Z,12.43
2023-06-10T04:46:06.364Z,12.53
2023-06-10T04:48:36.530Z,12.66
2023-06-10T04:51:04.286Z,12.77
2023-06-10T04:53:31.716Z,12.93
2023-06-10T04:56:01.366Z,13.06
2023-06-10T04:58:27.966Z,13.21
2023-06-10T05:00:54.600Z,13.37
2023-06-10T05:03:21.472Z,13.49
2023-06-10T05:05:48.130Z,13.67
2023-06-10T05:08:14.863Z,13.83
2023-06-10T05:10:41.695Z,14.00
2023-06-10T05:13:08.312Z,14.21
2023-06-10T05:15:34.898Z,14.36
2023-06-10T05:18:04.005Z,14.58
2023-06-10T05:20:31.077Z,14.84
2023-06-10T05:22:57.779Z,14.93
2023-06-10T05:25:27.591Z,15.19
2023-06-10T05:27:54.499Z,15.36
2023-06-10T05:30:21.250Z,15.58
2023-06-10T05:32:49.509Z,15.90
2023-06-10T05:35:16.244Z,15.99
2023-06-10T05:37:43.179Z,16.13
2023-06-10T05:40:10.632Z,16.45
2023-06-10T05:42:37.252Z,16.62
2023-06-10T05:45:04.477Z,16.73
2023-06-10T05:47:31.479Z,16.76
2023-06-10T05:49:58.390Z,16.82
2023-06-10T05:52:24.996Z,17.02
2023-06-10T05:54:51.871Z,17.30
2023-06-10T05:57:18.758Z,17.37
2023-06-10T05:59:45.439Z,17.44
2023-06-10T06:02:12.198Z,17.70
2023-06-10T06:04:38.906Z,18.04
2023-06-10T06:07:06.869Z,18.07
2023-06-10T06:09:33.462Z,18.37
2023-06-10T06:12:00.453Z,18.25
2023-06-10T06:14:27.095Z,18.56
2023-06-10T06:16:53.703Z,18.65
2023-06-10T06:19:20.417Z,18.61
2023-06-10T06:21:47.105Z,18.88
2023-06-10T06:24:13.895Z,19.08
2023-06-10T06:26:40.535Z,19.11
2023-06-10T06:29:07.141Z,19.29
2023-06-10T06:31:34.068Z,19.36
2023-06-10T06:34:00.791Z,19.56
2023-06-10T06:36:27.777Z,19.53
2023-06-10T06:38:54.489Z,19.53
2023-06-10T06:41:23.130Z,19.79
2023-06-10T06:43:49.809Z,19.45
2023-06-10T06:46:24.356Z,19.64
2023-06-10T06:48:51.346Z,19.72
2023-06-10T06:51:18.119Z,19.86
2023-06-10T06:53:48.012Z,20.04
2023-06-10T06:56:14.846Z,20.00
2023-06-10T06:58:42.506Z,20.25
2023-06-10T07:01:09.559Z,20.77
2023-06-10T07:03:36.313Z,20.53
2023-06-10T07:06:03.153Z,20.78
2023-06-10T07:08:30.119Z,20.91
2023-06-10T07:10:57.233Z,21.18
2023-06-10T07:13:23.929Z,21.47
2023-06-10T07:15:50.690Z,21.87
2023-06-10T07:18:18.616Z,21.67
2023-06-10T07:20:45.657Z,21.76
2023-06-10T07:23:12.618Z,22.02
2023-06-10T07:25:39.451Z,22.08
2023-06-10T07:28:06.109Z,21.95
2023-06-10T07:30:32.847Z,21.87
2023-06-10T07:32:59.820Z,22.00
2023-06-10T07:35:26.809Z,22.20
2023-06-10T07:37:53.408Z,22.49
2023-06-10T07:40:20.131Z,22.92
2023-06-10T07:42:46.767Z,23.08
2023-06-10T07:45:13.428Z,23.04
2023-06-10T07:47:40.216Z,23.00
2023-06-10T07:50:07.046Z,22.79
2023-06-10T07:52:33.859Z,22.27
2023-06-10T07:55:00.663Z,22.72
2023-06-10T07:57:27.625Z,23.23
2023-06-10T07:59:55.986Z,23.04
2023-06-10T08:02:25.492Z,23.02
2023-06-10T08:04:52.814Z,23.08
2023-06-10T08:07:20.097Z,23.01
2023-06-10T08:09:46.868Z,23.34
2023-06-10T08:12:13.700Z,23.50
2023-06-10T08:14:43.345Z,23.63
2023-06-10T08:17:09.996Z,23.73
2023-06-10T08:19:36.677Z,24.06
2023-06-10T08:22:03.657Z,24.09
2023-06-10T08:24:30.331Z,23.89
2023-06-10T08:26:58.107Z,23.47
2023-06-10T08:29:24.802Z,24.03
2023-06-10T08:31:51.573Z,24.05
2023-06-10T08:34:18.304Z,23.76
2023-06-10T08:36:46.430Z,23.06
2023-06-10T08:39:13.363Z,23.14
2023-06-10T08:41:44.913Z,23.38
2023-06-10T08:44:30.031Z,23.78
2023-06-10T08:47:01.561Z,23.89
2023-06-10T08:49:31.881Z,24.09
2023-06-10T08:52:03.428Z,24.01
2023-06-10T08:54:35.698Z,24.08
2023-06-10T08:57:06.926Z,24.59
2023-06-10T08:59:33.561Z,25.09
2023-06-10T09:02:01.871Z,25.52
2023-06-10T09:04:28.992Z,25.39
2023-06-10T09:06:57.139Z,25.42
2023-06-10T09:09:24.545Z,25.32
2023-06-10T09:11:51.489Z,24.89
2023-06-10T09:14:18.084Z,24.94
2023-06-10T09:16:46.863Z,25.05
2023-06-10T09:19:14.975Z,25.07
2023-06-10T09:21:42.145Z,24.35
2023-06-10T09:24:09.852Z,23.79
2023-06-10T09:26:36.585Z,23.59
2023-06-10T09:29:09.845Z,24.38
2023-06-10T09:31:38.206Z,24.92
2023-06-10T09:34:15.108Z,25.27
2023-06-10T09:36:42.265Z,25.57
2023-06-10T09:39:17.080Z,25.53
2023-06-10T09:41:44.691Z,26.35
2023-06-10T09:44:19.657Z,26.83
2023-06-10T09:46:48.244Z,26.76
2023-06-10T09:49:15.081Z,26.00
2023-06-10T09:51:55.872Z,24.92
2023-06-10T09:54:23.219Z,24.99
2023-06-10T09:56:52.478Z,25.19
2023-06-10T09:59:38.818Z,24.22
2023-06-10T10:02:06.427Z,23.82
2023-06-10T10:04:35.802Z,24.09
2023-06-10T10:07:03.153Z,24.54
2023-06-10T10:09:30.008Z,24.25
2023-06-10T10:11:59.025Z,24.45
2023-06-10T10:14:26.591Z,25.46
2023-06-10T10:16:53.921Z,25.94
2023-06-10T10:19:32.336Z,26.22
2023-06-10T10:22:12.114Z,26.61
2023-06-10T10:24:47.688Z,27.46
2023-06-10T10:27:38.410Z,27.93
2023-06-10T10:30:09.732Z,28.12
2023-06-10T10:32:41.756Z,28.25
2023-06-10T10:35:19.242Z,27.34
2023-06-10T10:37:46.484Z,27.63
2023-06-10T10:40:13.695Z,28.27
2023-06-10T10:42:41.609Z,27.27
2023-06-10T10:45:10.628Z,26.78
2023-06-10T10:47:39.842Z,27.05
2023-06-10T10:50:17.770Z,27.25
2023-06-10T10:52:54.803Z,27.27
2023-06-10T10:55:22.323Z,27.70
2023-06-10T10:58:06.928Z,28.24
2023-06-10T11:00:35.770Z,27.32
2023-06-10T11:03:08.800Z,26.27
2023-06-10T11:05:51.006Z,26.02
2023-06-10T11:08:30.102Z,25.95
2023-06-10T11:10:57.271Z,26.69
2023-06-10T11:13:26.222Z,27.17
2023-06-10T11:15:53.532Z,27.64
2023-06-10T11:18:41.334Z,27.29
2023-06-10T11:21:08.160Z,27.87
2023-06-10T11:23:40.257Z,27.84
2023-06-10T11:26:32.697Z,27.84
2023-06-10T11:28:59.555Z,28.41
2023-06-10T11:31:27.388Z,28.77
2023-06-10T11:33:57.806Z,29.03
2023-06-10T11:36:28.437Z,28.95
2023-06-10T11:38:56.964Z,28.46
2023-06-10T11:41:28.537Z,28.20
2023-06-10T11:43:57.839Z,28.69
2023-06-10T11:46:27.787Z,28.77
2023-06-10T11:49:01.666Z,29.44
2023-06-10T11:51:31.308Z,29.79
2023-06-10T11:53:57.942Z,29.51
2023-06-10T11:56:27.929Z,28.34
2023-06-10T11:58:56.985Z,27.32
2023-06-10T12:01:28.685Z,27.54
2023-06-10T12:03:59.227Z,28.14
2023-06-10T12:06:25.909Z,28.04
2023-06-10T12:08:52.647Z,28.24
2023-06-10T12:11:19.791Z,28.09
2023-06-10T12:13:49.695Z,27.79
2023-06-10T12:16:17.344Z,27.84
2023-06-10T12:18:47.916Z,28.47
2023-06-10T12:21:18.523Z,28.39
2023-06-10T12:24:02.158Z,29.62
2023-06-10T12:26:43.317Z,29.87
2023-06-10T12:29:15.902Z,30.03
2023-06-10T12:32:04.168Z,30.54
2023-06-10T12:34:30.989Z,31.19
2023-06-10T12:36:57.699Z,31.04
2023-06-10T12:39:24.442Z,31.22
2023-06-10T12:41:52.719Z,29.91
2023-06-10T12:44:19.337Z,30.61
2023-06-10T12:46:45.954Z,30.45
2023-06-10T12:49:21.953Z,30.46
2023-06-10T12:51:49.088Z,31.79
2023-06-10T12:54:16.245Z,30.84
2023-06-10T12:56:42.802Z,32.06
2023-06-10T12:59:09.589Z,32.61
2023-06-10T13:01:37.051Z,33.25
2023-06-10T13:04:06.092Z,33.58
2023-06-10T13:06:34.577Z,34.61
2023-06-10T13:09:01.293Z,34.72
2023-06-10T13:11:27.955Z,34.37
2023-06-10T13:13:54.598Z,33.65
2023-06-10T13:16:21.487Z,33.79
2023-06-10T13:18:48.113Z,34.69
2023-06-10T13:21:14.791Z,34.77
2023-06-10T13:23:41.485Z,32.93
2023-06-10T13:26:08.263Z,31.32
2023-06-10T13:28:36.137Z,31.39
2023-06-10T13:31:02.960Z,30.82
2023-06-10T13:33:29.831Z,30.01
2023-06-10T13:35:56.384Z,28.22
2023-06-10T13:38:23.031Z,27.84
2023-06-10T13:40:49.743Z,28.49
2023-06-10T13:43:16.625Z,28.07
2023-06-10T13:45:43.520Z,27.62
2023-06-10T13:48:10.856Z,27.20
2023-06-10T13:50:38.829Z,26.87
2023-06-10T13:53:05.468Z,26.65
2023-06-10T13:55:32.190Z,26.76
2023-06-10T13:57:58.799Z,27.72
2023-06-10T14:00:26.213Z,28.15
2023-06-10T14:02:53.058Z,30.09
2023-06-10T14:05:19.885Z,31.62
2023-06-10T14:07:46.960Z,32.07
2023-06-10T14:10:13.853Z,31.36
2023-06-10T14:12:40.967Z,32.58
2023-06-10T14:15:08.466Z,33.26
2023-06-10T14:17:35.420Z,33.04
2023-06-10T14:20:02.188Z,32.01
2023-06-10T14:22:28.743Z,30.67
2023-06-10T14:24:55.506Z,29.52
2023-06-10T14:27:22.184Z,28.72
2023-06-10T14:29:48.726Z,27.86
2023-06-10T14:32:17.730Z,27.26
2023-06-10T14:34:45.699Z,26.98
2023-06-10T14:37:12.543Z,28.78
2023-06-10T14:39:39.295Z,30.27
2023-06-10T14:42:06.738Z,31.89
2023-06-10T14:44:33.483Z,31.90
2023-06-10T14:47:00.111Z,32.82
2023-06-10T14:49:26.754Z,31.36
2023-06-10T14:51:53.724Z,29.80
2023-06-10T14:54:20.462Z,29.36
2023-06-10T14:56:47.105Z,28.32
2023-06-10T14:59:13.849Z,27.82
2023-06-10T15:01:40.661Z,27.26
2023-06-10T15:04:07.608Z,26.58
2023-06-10T15:06:34.307Z,26.13
2023-06-10T15:09:00.927Z,25.95
2023-06-10T15:11:27.598Z,25.91
2023-06-10T15:13:54.170Z,27.14
2023-06-10T15:16:21.136Z,27.06
2023-06-10T15:18:48.014Z,26.70
2023-06-10T15:21:15.069Z,26.58
2023-06-10T15:23:41.801Z,25.91
2023-06-10T15:26:08.585Z,25.69
2023-06-10T15:28:35.471Z,25.68
2023-06-10T15:31:02.213Z,26.25
2023-06-10T15:33:28.858Z,25.96
2023-06-10T15:35:55.723Z,25.97
2023-06-10T15:38:22.502Z,25.96
2023-06-10T15:40:49.101Z,25.86
2023-06-10T15:43:15.782Z,25.31
2023-06-10T15:45:42.543Z,26.11
2023-06-10T15:48:09.327Z,26.01
2023-06-10T15:50:36.311Z,25.73
2023-06-10T15:53:03.070Z,25.00
2023-06-10T15:55:30.258Z,24.79
2023-06-10T15:57:58.204Z,24.26
2023-06-10T16:00:24.864Z,24.91
2023-06-10T16:02:51.777Z,26.99
2023-06-10T16:05:18.499Z,28.61
2023-06-10T16:07:45.254Z,29.77
2023-06-10T16:10:12.030Z,30.38
2023-06-10T16:12:38.634Z,29.76
2023-06-10T16:15:06.241Z,30.10
2023-06-10T16:17:33.480Z,29.64
2023-06-10T16:20:00.390Z,30.30
2023-06-10T16:22:27.559Z,30.38
2023-06-10T16:24:54.125Z,30.73
2023-06-10T16:27:21.045Z,31.59
2023-06-10T16:29:47.866Z,31.09
2023-06-10T16:32:14.493Z,31.75
2023-06-10T16:34:41.204Z,31.62
2023-06-10T16:37:07.771Z,30.99
2023-06-10T16:39:34.720Z,28.43
2023-06-10T16:42:04.250Z,26.66
2023-06-10T16:44:30.906Z,25.87
2023-06-10T16:46:57.631Z,24.90
2023-06-10T16:49:24.524Z,24.68
2023-06-10T16:51:51.481Z,24.53
2023-06-10T16:54:18.727Z,25.45
2023-06-10T16:56:45.784Z,26.75
2023-06-10T16:59:12.538Z,27.84
2023-06-10T17:01:39.306Z,27.51
2023-06-10T17:04:05.915Z,27.00
2023-06-10T17:06:32.823Z,26.29
2023-06-10T17:08:59.610Z,25.44
2023-06-10T17:11:26.402Z,24.74
2023-06-10T17:13:53.051Z,24.48
2023-06-10T17:16:19.813Z,24.06
2023-06-10T17:18:46.496Z,23.82
2023-06-10T17:21:13.277Z,23.66
2023-06-10T17:23:40.053Z,23.42
2023-06-10T17:26:06.782Z,23.39
2023-06-10T17:28:33.623Z,23.26
2023-06-10T17:31:00.326Z,23.16
2023-06-10T17:33:26.930Z,23.18
2023-06-10T17:35:53.750Z,23.00
2023-06-10T17:38:22.864Z,22.79
2023-06-10T17:40:49.758Z,22.84
2023-06-10T17:43:16.358Z,22.74
2023-06-10T17:45:43.233Z,22.79
2023-06-10T17:48:10.129Z,22.79
2023-06-10T17:50:36.972Z,22.67
2023-06-10T17:53:03.668Z,22.58
2023-06-10T17:55:30.598Z,22.58
2023-06-10T17:57:57.323Z,22.61
2023-06-10T18:00:24.726Z,22.39
2023-06-10T18:02:51.605Z,22.30
2023-06-10T18:05:18.526Z,22.15
2023-06-10T18:07:45.589Z,22.06
2023-06-10T18:10:12.563Z,21.89
2023-06-10T18:12:39.755Z,21.90
2023-06-10T18:15:07.009Z,21.80
2023-06-10T18:17:36.986Z,21.74
2023-06-10T18:20:04.941Z,21.73
2023-06-10T18:22:31.750Z,21.66
2023-06-10T18:24:59.208Z,21.53
2023-06-10T18:27:25.825Z,21.33
2023-06-10T18:29:52.683Z,21.16
2023-06-10T18:32:19.487Z,21.01
2023-06-10T18:34:47.409Z,20.87
2023-06-10T18:37:14.182Z,20.86
2023-06-10T18:39:40.962Z,20.86
2023-06-10T18:42:08.578Z,20.79
2023-06-10T18:44:35.259Z,20.74
2023-06-10T18:47:02.142Z,20.68
2023-06-10T18:49:28.728Z,20.68
2023-06-10T18:51:58.395Z,20.63
2023-06-10T18:54:25.161Z,20.64
2023-06-10T18:56:52.970Z,20.66
2023-06-10T18:59:19.700Z,20.60
2023-06-10T19:01:46.456Z,20.53
2023-06-10T19:04:13.279Z,20.44
2023-06-10T19:06:40.194Z,20.46
2023-06-10T19:09:06.930Z,20.36
2023-06-10T19:11:34.185Z,20.24
2023-06-10T19:14:01.047Z,20.16
2023-06-10T19:16:27.775Z,20.13
2023-06-10T19:18:55.527Z,19.99
2023-06-10T19:21:22.423Z,19.97
2023-06-10T19:23:49.075Z,19.84
2023-06-10T19:26:15.843Z,19.66
2023-06-10T19:28:42.625Z,19.64
2023-06-10T19:31:09.390Z,19.58
2023-06-10T19:33:36.033Z,19.48
2023-06-10T19:36:02.654Z,19.37
2023-06-10T19:38:29.633Z,19.36
2023-06-10T19:40:56.222Z,19.31
2023-06-10T19:43:23.018Z,19.26
2023-06-10T19:45:49.658Z,19.20
2023-06-10T19:48:16.548Z,19.11
2023-06-10T19:50:43.222Z,19.08
2023-06-10T19:53:10.060Z,19.00
2023-06-10T19:55:38.627Z,18.96
2023-06-10T19:58:05.780Z,18.88
2023-06-10T20:00:32.377Z,18.72
2023-06-10T20:02:59.328Z,18.65
2023-06-10T20:05:26.265Z,18.58
2023-06-10T20:07:52.850Z,18.52
2023-06-10T20:10:20.125Z,18.50
2023-06-10T20:12:47.043Z,18.35
2023-06-10T20:15:13.833Z,18.25
2023-06-10T20:17:40.636Z,18.19
2023-06-10T20:20:07.962Z,18.12
2023-06-10T20:22:34.533Z,18.07
2023-06-10T20:25:01.310Z,17.93
2023-06-10T20:27:28.157Z,17.84
2023-06-10T20:29:57.183Z,17.76
2023-06-10T20:32:24.696Z,17.66
2023-06-10T20:34:51.884Z,17.51
2023-06-10T20:37:18.596Z,17.33
2023-06-10T20:39:45.269Z,17.31
2023-06-10T20:42:14.250Z,17.22
2023-06-10T20:44:42.776Z,17.18
2023-06-10T20:47:09.409Z,17.21
2023-06-10T20:49:36.026Z,17.26
2023-06-10T20:52:02.607Z,17.36
2023-06-10T20:54:29.446Z,17.37
2023-06-10T20:56:56.238Z,17.37
2023-06-10T20:59:23.018Z,17.38
2023-06-10T21:01:49.682Z,17.34
2023-06-10T21:04:16.626Z,17.30
2023-06-10T21:06:43.437Z,17.25
2023-06-10T21:09:10.202Z,17.23
2023-06-10T21:11:36.749Z,17.18
2023-06-10T21:14:04.781Z,17.14
2023-06-10T21:16:34.881Z,17.09
2023-06-10T21:19:01.679Z,17.01
2023-06-10T21:21:28.511Z,17.03
2023-06-10T21:23:55.528Z,17.01
2023-06-10T21:26:22.354Z,17.03
2023-06-10T21:28:49.413Z,17.03
2023-06-10T21:31:16.733Z,17.00
2023-06-10T21:33:43.687Z,17.00
2023-06-10T21:36:10.929Z,16.82
2023-06-10T21:38:37.512Z,16.70
2023-06-10T21:41:04.423Z,16.55
2023-06-10T21:43:30.994Z,16.49
2023-06-10T21:45:58.027Z,16.39
2023-06-10T21:48:24.664Z,16.30
2023-06-10T21:50:51.359Z,16.20
2023-06-10T21:53:18.340Z,16.05
2023-06-10T21:55:45.092Z,15.96
2023-06-10T21:58:11.706Z,15.89
2023-06-10T22:00:39.773Z,15.78
2023-06-10T22:03:06.615Z,15.75
2023-06-10T22:05:34.034Z,15.76
2023-06-10T22:08:01.610Z,15.74
2023-06-10T22:10:28.191Z,15.70
2023-06-10T22:12:54.948Z,15.71
2023-06-10T22:15:21.923Z,15.72
2023-06-10T22:17:48.645Z,15.74
2023-06-10T22:20:15.422Z,15.81
2023-06-10T22:22:42.113Z,15.90
2023-06-10T22:25:09.578Z,15.93
2023-06-10T22:27:36.672Z,15.94
2023-06-10T22:30:03.777Z,15.97
2023-06-10T22:32:30.637Z,15.98
2023-06-10T22:34:57.223Z,15.96
2023-06-10T22:37:24.030Z,15.90
2023-06-10T22:39:50.633Z,15.88
2023-06-10T22:42:17.235Z,15.77
2023-06-10T22:44:46.707Z,15.62
2023-06-10T22:47:15.215Z,15.57
2023-06-10T22:49:41.890Z,15.51
2023-06-10T22:52:08.896Z,15.49
2023-06-10T22:54:35.627Z,15.46
2023-06-10T22:57:02.451Z,15.44
2023-06-10T22:59:29.112Z,15.45
2023-06-10T23:01:56.120Z,15.51
2023-06-10T23:04:22.812Z,15.55
2023-06-10T23:06:49.671Z,15.52
2023-06-10T23:09:16.531Z,15.54
2023-06-10T23:11:44.715Z,15.59
2023-06-10T23:14:11.967Z,15.56
2023-06-10T23:16:46.785Z,15.56
2023-06-10T23:19:19.299Z,15.50
2023-06-10T23:21:54.588Z,15.37
2023-06-10T23:24:30.210Z,15.34
2023-06-10T23:27:01.656Z,15.27
2023-06-10T23:29:29.036Z,15.24
2023-06-10T23:31:56.175Z,15.08
2023-06-10T23:34:23.156Z,15.01
2023-06-10T23:36:50.093Z,15.05
2023-06-10T23:39:17.447Z,14.93
2023-06-10T23:41:45.967Z,14.81
2023-06-10T23:44:13.890Z,14.74
2023-06-10T23:46:41.006Z,14.72
2023-06-10T23:49:09.946Z,14.52
2023-06-10T23:51:38.465Z,14.41
2023-06-10T23:54:06.528Z,14.27
2023-06-10T23:56:33.601Z,14.24
2023-06-10T23:59:00.769Z,14.22
